createdAt,value
2023-03-22T00:01:46.269Z,3.92
2023-03-22T00:04:32.760Z,3.88
2023-03-22T00:07:18.420Z,4.00
2023-03-22T00:10:05.206Z,3.70
2023-03-22T00:12:51.316Z,3.40
2023-03-22T00:15:37.490Z,3.88
2023-03-22T00:18:23.308Z,3.78
2023-03-22T00:21:13.006Z,3.45
2023-03-22T00:23:58.379Z,3.83
2023-03-22T00:26:44.288Z,3.88
2023-03-22T00:29:29.536Z,3.35
2023-03-22T00:32:15.603Z,3.90
2023-03-22T00:35:01.946Z,3.90
2023-03-22T00:37:47.443Z,3.45
2023-03-22T00:40:33.838Z,3.47
2023-03-22T00:43:19.384Z,3.70
2023-03-22T00:46:05.721Z,4.47
2023-03-22T00:48:51.108Z,4.13
2023-03-22T00:51:36.459Z,4.13
2023-03-22T00:54:22.101Z,3.63
2023-03-22T00:57:07.995Z,3.72
2023-03-22T00:59:54.004Z,4.00
2023-03-22T01:02:40.395Z,4.00
2023-03-22T01:05:26.364Z,4.22
2023-03-22T01:08:14.884Z,4.90
2023-03-22T01:11:01.341Z,4.72
2023-03-22T01:13:48.087Z,4.32
2023-03-22T01:16:33.589Z,4.10
2023-03-22T01:19:19.318Z,3.78
2023-03-22T01:22:06.663Z,3.80
2023-03-22T01:24:52.002Z,3.40
2023-03-22T01:27:37.638Z,3.47
2023-03-22T01:30:23.067Z,3.35
2023-03-22T01:33:09.210Z,3.20
2023-03-22T01:35:54.812Z,3.40
2023-03-22T01:38:40.392Z,2.75
2023-03-22T01:41:26.185Z,3.25
2023-03-22T01:44:14.846Z,3.53
2023-03-22T01:47:00.161Z,3.22
2023-03-22T01:49:45.634Z,3.13
2023-03-22T01:52:31.072Z,3.25
2023-03-22T01:55:18.308Z,3.30
2023-03-22T01:58:04.730Z,3.70
2023-03-22T02:00:52.070Z,3.28
2023-03-22T02:03:51.358Z,3.38
2023-03-22T02:06:38.361Z,3.20
2023-03-22T02:09:24.251Z,3.60
2023-03-22T02:12:30.643Z,3.58
2023-03-22T02:15:22.894Z,3.20
2023-03-22T02:18:28.074Z,3.40
2023-03-22T02:21:38.847Z,2.97
2023-03-22T02:25:13.896Z,3.00
2023-03-22T02:28:30.106Z,3.35
2023-03-22T02:31:40.059Z,2.92
2023-03-22T02:34:44.120Z,3.65
2023-03-22T02:37:37.702Z,2.70
2023-03-22T02:40:53.455Z,3.10
2023-03-22T02:43:59.260Z,3.03
2023-03-22T02:46:54.664Z,3.55
2023-03-22T02:49:48.064Z,2.80
2023-03-22T02:53:03.233Z,3.70
2023-03-22T02:55:55.176Z,3.58
2023-03-22T02:59:02.800Z,3.20
2023-03-22T03:01:58.922Z,3.20
2023-03-22T03:04:48.271Z,3.35
2023-03-22T03:07:34.689Z,3.35
2023-03-22T03:10:22.078Z,3.00
2023-03-22T03:13:13.278Z,3.30
2023-03-22T03:16:01.405Z,3.30
2023-03-22T03:19:05.833Z,2.88
2023-03-22T03:22:05.454Z,2.80
2023-03-22T03:25:03.228Z,2.83
2023-03-22T03:28:08.727Z,2.70
2023-03-22T03:31:01.115Z,2.65
2023-03-22T03:34:27.201Z,3.10
2023-03-22T03:37:18.592Z,2.90
2023-03-22T03:40:12.856Z,2.80
2023-03-22T03:43:02.472Z,3.05
2023-03-22T03:45:47.998Z,2.80
2023-03-22T03:48:35.701Z,3.00
2023-03-22T03:51:21.021Z,2.53
2023-03-22T03:54:06.472Z,2.90
2023-03-22T03:56:53.765Z,2.93
2023-03-22T03:59:39.012Z,3.10
2023-03-22T04:02:24.437Z,2.90
2023-03-22T04:05:11.608Z,2.73
2023-03-22T04:07:56.841Z,3.10
2023-03-22T04:10:42.463Z,3.23
2023-03-22T04:13:27.843Z,2.47
2023-03-22T04:16:13.252Z,2.90
2023-03-22T04:18:58.901Z,2.60
2023-03-22T04:21:44.356Z,3.03
2023-03-22T04:24:30.257Z,2.73
2023-03-22T04:27:16.526Z,2.80
2023-03-22T04:30:01.933Z,2.57
2023-03-22T04:32:48.378Z,2.90
2023-03-22T04:35:35.101Z,3.40
2023-03-22T04:38:20.585Z,2.73
2023-03-22T04:41:06.816Z,2.50
2023-03-22T04:43:52.310Z,2.90
2023-03-22T04:46:38.252Z,2.63
2023-03-22T04:49:24.384Z,2.70
2023-03-22T04:52:09.825Z,2.80
2023-03-22T04:54:55.336Z,2.80
2023-03-22T04:57:40.561Z,3.00
2023-03-22T05:00:26.229Z,8.07
2023-03-22T05:03:11.644Z,15.83
2023-03-22T05:05:59.389Z,9.90
2023-03-22T05:08:44.714Z,6.33
2023-03-22T05:11:30.027Z,5.40
2023-03-22T05:14:15.678Z,4.55
2023-03-22T05:17:01.069Z,3.70
2023-03-22T05:19:46.461Z,3.43
2023-03-22T05:22:34.671Z,3.40
2023-03-22T05:25:20.133Z,3.30
2023-03-22T05:28:06.429Z,3.40
2023-03-22T05:30:52.063Z,3.50
2023-03-22T05:33:37.603Z,3.80
2023-03-22T05:36:23.684Z,3.30
2023-03-22T05:39:09.434Z,3.10
2023-03-22T05:41:54.671Z,3.43
2023-03-22T05:44:40.314Z,3.37
2023-03-22T05:47:25.942Z,3.20
2023-03-22T05:50:14.502Z,3.00
2023-03-22T05:53:00.147Z,3.50
2023-03-22T05:55:45.415Z,3.70
2023-03-22T05:58:32.337Z,3.57
2023-03-22T06:01:17.733Z,3.20
2023-03-22T06:04:03.733Z,3.40
2023-03-22T06:06:49.134Z,2.97
2023-03-22T06:09:34.571Z,2.87
2023-03-22T06:12:24.536Z,2.90
2023-03-22T06:15:10.850Z,2.80
2023-03-22T06:17:56.150Z,3.20
2023-03-22T06:20:42.111Z,2.80
2023-03-22T06:23:28.320Z,3.00
2023-03-22T06:26:13.960Z,3.27
2023-03-22T06:28:59.286Z,2.70
2023-03-22T06:31:44.905Z,2.73
2023-03-22T06:34:31.012Z,2.30
2023-03-22T06:37:16.454Z,2.77
2023-03-22T06:40:01.768Z,2.40
2023-03-22T06:42:47.404Z,2.27
2023-03-22T06:45:33.589Z,2.30
2023-03-22T06:48:19.233Z,2.20
2023-03-22T06:51:05.029Z,2.17
2023-03-22T06:53:50.903Z,2.10
2023-03-22T06:56:36.185Z,2.40
2023-03-22T06:59:21.770Z,1.92
2023-03-22T07:02:07.311Z,2.20
2023-03-22T07:04:52.894Z,2.20
2023-03-22T07:07:38.711Z,1.90
2023-03-22T07:10:23.984Z,2.30
2023-03-22T07:13:10.350Z,2.03
2023-03-22T07:16:01.217Z,2.10
2023-03-22T07:18:46.724Z,3.00
2023-03-22T07:21:32.097Z,1.98
2023-03-22T07:24:17.941Z,2.10
2023-03-22T07:27:03.530Z,1.70
2023-03-22T07:29:49.002Z,1.60
2023-03-22T07:32:34.722Z,1.63
2023-03-22T07:35:20.118Z,1.98
2023-03-22T07:38:06.500Z,1.70
2023-03-22T07:40:54.958Z,1.67
2023-03-22T07:43:53.391Z,1.70
2023-03-22T07:46:40.839Z,1.63
2023-03-22T07:49:27.205Z,1.83
2023-03-22T07:52:13.040Z,1.90
2023-03-22T07:54:58.222Z,1.63
2023-03-22T07:57:43.832Z,1.83
2023-03-22T08:00:29.286Z,1.80
2023-03-22T08:03:14.673Z,1.80
2023-03-22T08:06:06.569Z,1.70
2023-03-22T08:08:52.167Z,1.60
2023-03-22T08:11:37.739Z,2.38
2023-03-22T08:14:34.084Z,1.80
2023-03-22T08:17:21.563Z,1.42
2023-03-22T08:20:09.146Z,1.30
2023-03-22T08:22:55.409Z,1.50
2023-03-22T08:25:40.950Z,1.77
2023-03-22T08:28:26.672Z,1.65
2023-03-22T08:31:15.320Z,1.70
2023-03-22T08:34:00.997Z,1.50
2023-03-22T08:36:46.453Z,1.50
2023-03-22T08:39:32.483Z,1.63
2023-03-22T08:42:17.868Z,1.30
2023-03-22T08:45:04.550Z,1.40
2023-03-22T08:47:50.346Z,1.50
2023-03-22T08:50:35.941Z,1.30
2023-03-22T08:53:21.496Z,1.73
2023-03-22T08:56:08.008Z,1.48
2023-03-22T08:58:53.936Z,1.50
2023-03-22T09:01:39.475Z,2.45
2023-03-22T09:04:25.088Z,2.35
2023-03-22T09:07:11.061Z,2.15
2023-03-22T09:09:56.679Z,1.67
2023-03-22T09:12:42.380Z,2.55
2023-03-22T09:15:27.460Z,1.50
2023-03-22T09:18:13.875Z,1.55
2023-03-22T09:20:59.441Z,4.57
2023-03-22T09:23:47.805Z,1.92
2023-03-22T09:26:33.021Z,1.80
2023-03-22T09:29:19.559Z,1.77
2023-03-22T09:32:04.910Z,1.80
2023-03-22T09:34:50.277Z,2.00
2023-03-22T09:37:35.732Z,1.70
2023-03-22T09:40:25.056Z,2.10
2023-03-22T09:43:15.003Z,1.83
2023-03-22T09:46:03.819Z,1.98
2023-03-22T09:48:50.675Z,1.75
2023-03-22T09:51:43.394Z,2.08
2023-03-22T09:54:38.179Z,2.10
2023-03-22T09:57:24.467Z,1.77
2023-03-22T10:00:18.910Z,1.88
2023-03-22T10:03:25.905Z,1.90
2023-03-22T10:06:21.916Z,1.85
2023-03-22T10:09:22.740Z,2.00
2023-03-22T10:12:29.947Z,2.03
2023-03-22T10:15:19.526Z,2.08
2023-03-22T10:18:21.766Z,2.10
2023-03-22T10:21:12.493Z,2.35
2023-03-22T10:24:17.642Z,2.40
2023-03-22T10:27:03.407Z,2.40
2023-03-22T10:29:55.878Z,2.08
2023-03-22T10:33:01.758Z,1.83
2023-03-22T10:35:48.611Z,1.88
2023-03-22T10:38:45.971Z,2.00
2023-03-22T10:41:33.604Z,1.83
2023-03-22T10:44:19.935Z,1.90
2023-03-22T10:47:08.427Z,2.05
2023-03-22T10:49:57.196Z,1.92
2023-03-22T10:53:04.575Z,1.80
2023-03-22T10:55:49.862Z,1.85
2023-03-22T10:58:35.526Z,1.58
2023-03-22T11:01:36.961Z,1.83
2023-03-22T11:04:22.630Z,1.58
2023-03-22T11:07:25.871Z,1.65
2023-03-22T11:10:12.514Z,1.92
2023-03-22T11:13:22.306Z,1.75
2023-03-22T11:16:08.240Z,1.80
2023-03-22T11:18:55.460Z,1.90
2023-03-22T11:21:43.175Z,1.55
2023-03-22T11:24:31.916Z,1.38
2023-03-22T11:27:25.632Z,1.60
2023-03-22T11:30:26.831Z,1.67
2023-03-22T11:33:19.560Z,1.60
2023-03-22T11:36:16.868Z,1.52
2023-03-22T11:39:07.902Z,1.48
2023-03-22T11:41:57.708Z,1.50
2023-03-22T11:44:44.513Z,1.58
2023-03-22T11:47:38.226Z,1.80
2023-03-22T11:50:32.502Z,1.50
2023-03-22T11:53:22.623Z,1.67
2023-03-22T11:56:11.431Z,1.70
2023-03-22T11:59:24.145Z,1.58
2023-03-22T12:02:34.642Z,1.27
2023-03-22T12:05:30.382Z,1.17
2023-03-22T12:08:37.174Z,1.30
2023-03-22T12:11:41.145Z,1.40
2023-03-22T12:14:34.649Z,1.58
2023-03-22T12:17:27.919Z,1.45
2023-03-22T12:20:35.494Z,1.10
2023-03-22T12:23:24.826Z,1.42
2023-03-22T12:26:20.310Z,1.20
2023-03-22T12:29:14.048Z,1.17
2023-03-22T12:32:15.784Z,1.02
2023-03-22T12:35:18.254Z,0.90
2023-03-22T12:38:16.380Z,1.20
2023-03-22T12:41:05.796Z,1.10
2023-03-22T12:43:56.593Z,1.00
2023-03-22T12:46:58.098Z,1.10
2023-03-22T12:49:51.902Z,1.02
2023-03-22T12:52:45.675Z,1.10
2023-03-22T12:55:38.193Z,1.20
2023-03-22T12:58:26.203Z,1.00
2023-03-22T13:01:22.188Z,1.20
2023-03-22T13:04:26.329Z,1.15
2023-03-22T13:07:34.272Z,1.27
2023-03-22T13:10:31.892Z,0.90
2023-03-22T13:13:24.114Z,1.40
2023-03-22T13:16:11.009Z,1.17
2023-03-22T13:18:59.951Z,1.15
2023-03-22T13:21:48.924Z,1.38
2023-03-22T13:24:34.877Z,1.30
2023-03-22T13:27:20.445Z,1.73
2023-03-22T13:30:33.788Z,1.30
2023-03-22T13:33:24.882Z,1.17
2023-03-22T13:36:25.973Z,1.20
2023-03-22T13:39:12.559Z,1.17
2023-03-22T13:42:08.131Z,1.30
2023-03-22T13:45:03.591Z,1.30
2023-03-22T13:48:09.804Z,1.30
2023-03-22T13:50:56.744Z,1.60
2023-03-22T13:53:51.490Z,1.35
2023-03-22T13:57:00.966Z,1.30
2023-03-22T14:00:15.576Z,1.33
2023-03-22T14:03:07.392Z,1.10
2023-03-22T14:06:04.387Z,1.45
2023-03-22T14:08:54.422Z,1.10
2023-03-22T14:11:47.077Z,1.17
2023-03-22T14:14:42.907Z,1.30
2023-03-22T14:17:56.197Z,1.40
2023-03-22T14:20:42.158Z,1.20
